KDLF/DLF METAR and TAF weather

Enter ICAO airport designator
Station Type Date Time Source
KDLF METAR 2020/12/06 00:56 UTC NOAA

KDLF 060056Z AUTO 31012KT 10SM FEW090 SCT150 11/03 A3025 RMK AO2 SLP245 T01070033 $


Station Type Date Time Source
KDLF Decoded METAR 2020/12/06 00:56 UTC NOAA

Laughlin, Laughlin Air Force Base Auxiliary Airfield, TX, United States (KDLF) 29-07-00N 100-28-00W 294M
Dec 05, 2020 - 07:56 PM EST / 2020.12.06 0056 UTC
Wind: from the NW (310 degrees) at 14 MPH (12 KT):0
Visibility: 10 mile(s):0
Sky conditions: partly cloudy
Temperature: 51.3 F (10.7 C)
Dew Point: 37.9 F (3.3 C)
Relative Humidity: 60%
Pressure (altimeter): 30.25 in. Hg (1024 hPa)
ob: KDLF 060056Z AUTO 31012KT 10SM FEW090 SCT150 11/03 A3025 RMK AO2 SLP245 T01070033
cycle: 1

Station Type Date Time Source
KDLF TAF 2020/12/04 23:09 UTC NOAA

TAF KDLF 042303Z 0423/0602 VRB06KT 9999 FEW200 QNH3018INS
BECMG 0507/0508 VRB06KT 8000 -SHRA BKN025 BKN080 QNH3019INS
BECMG 0513/0514 31007KT 9999 NSW SCT035 BKN080 QNH3020INS
BECMG 0522/0523 32009KT 9999 FEW040 SCT070 QNH3020INS TX15/0423Z TN03/0506Z LAST NO
AMDS AFT 0423 NEXT 0619

Example: see airport list